Time;durP1;ratioP1;P1;durP2;ratioP2;P2;SDS_P1;SDS_P2;PMS_P1;PMS_P2;Temp;Humidity;BMP_temperature;BMP_pressure;BME280_temperature;BME280_humidity;BME280_pressure;Samples;Min_cycle;Max_cycle;Signal;HPM_P1;HPM_P2
2022/06/10 00:00:47;;;;;;;7.60;2.10;;;;;;;23.23;43.20;100021.14;117418;1186;21837;-48
2022/06/10 00:03:15;;;;;;;6.70;2.00;;;;;;;23.19;43.25;100022.23;117386;1185;21836;-48
2022/06/10 00:05:44;;;;;;;4.50;2.00;;;;;;;23.15;43.20;100027.40;117448;1182;24152;-48
2022/06/10 00:08:13;;;;;;;4.20;1.90;;;;;;;23.12;43.26;100030.27;117438;1186;21949;-48
2022/06/10 00:10:40;;;;;;;4.40;2.00;;;;;;;23.11;43.33;100028.77;117457;1186;22704;-48
2022/06/10 00:13:07;;;;;;;4.00;2.10;;;;;;;23.09;43.37;100033.53;117422;1183;23735;-55
2022/06/10 00:15:34;;;;;;;4.80;2.10;;;;;;;23.08;43.39;100031.65;117399;1186;22895;-48
2022/06/10 00:18:01;;;;;;;4.60;2.10;;;;;;;23.04;43.43;100036.55;117368;1182;23554;-55
2022/06/10 00:20:30;;;;;;;4.30;2.20;;;;;;;23.02;43.59;100038.65;117248;1182;22889;-53
2022/06/10 00:22:57;;;;;;;4.90;2.60;;;;;;;23.01;43.65;100042.30;117314;1182;24296;-48
2022/06/10 00:25:24;;;;;;;3.70;2.00;;;;;;;22.99;43.79;100043.28;117292;1186;22931;-48
2022/06/10 00:27:51;;;;;;;3.30;2.20;;;;;;;22.98;44.03;100042.52;117404;1184;21852;-49
2022/06/10 00:30:21;;;;;;;3.00;2.10;;;;;;;22.97;44.10;100043.48;117404;1183;23579;-55
2022/06/10 00:32:48;;;;;;;3.10;2.00;;;;;;;22.94;44.14;100040.27;117339;1186;21859;-47
2022/06/10 00:35:15;;;;;;;5.10;2.30;;;;;;;22.91;44.21;100046.39;117291;1186;22947;-55
2022/06/10 00:37:42;;;;;;;4.60;1.90;;;;;;;22.89;44.45;100045.65;117331;1185;22929;-47
2022/06/10 00:40:31;;;;;;;3.80;2.50;;;;;;;22.87;44.51;100048.27;117372;1183;24154;-50
2022/06/10 00:42:58;;;;;;;4.90;2.40;;;;;;;22.85;44.56;100056.63;117293;1186;21859;-55
2022/06/10 00:45:52;;;;;;;6.60;2.50;;;;;;;22.84;44.67;100067.41;117316;1188;23541;-48
2022/06/10 00:48:28;;;;;;;5.50;2.50;;;;;;;22.85;44.69;100078.48;117372;1183;23107;-55
2022/06/10 00:50:56;;;;;;;6.90;2.40;;;;;;;22.84;44.80;100079.23;117310;1182;23554;-55
2022/06/10 00:53:25;;;;;;;4.80;2.10;;;;;;;22.79;44.71;100075.64;117211;1183;22972;-55
2022/06/10 00:55:54;;;;;;;8.10;2.50;;;;;;;22.77;44.61;100077.42;117384;1183;22291;-47
2022/06/10 00:58:33;;;;;;;4.20;2.20;;;;;;;22.78;44.64;100075.20;117400;1186;21856;-55
2022/06/10 01:01:01;;;;;;;5.40;2.50;;;;;;;22.81;44.70;100073.23;117429;1184;24146;-47
2022/06/10 01:03:29;;;;;;;5.20;2.60;;;;;;;22.82;44.84;100075.24;117423;1182;22803;-47
2022/06/10 01:05:56;;;;;;;4.70;2.70;;;;;;;22.83;44.99;100073.38;117375;1182;23563;-49
2022/06/10 01:08:23;;;;;;;6.50;2.50;;;;;;;22.83;45.04;100073.04;117376;1182;22988;-55
2022/06/10 01:11:17;;;;;;;4.90;2.50;;;;;;;22.83;45.02;100074.30;117125;1183;22906;-55
2022/06/10 01:14:19;;;;;;;4.70;2.40;;;;;;;22.84;45.14;100075.44;117390;1182;23540;-48
2022/06/10 01:17:24;;;;;;;10.60;3.10;;;;;;;22.86;45.13;100069.99;117428;1182;21888;-55
2022/06/10 01:20:45;;;;;;;7.90;2.20;;;;;;;22.87;45.42;100060.81;117428;1183;22899;-55
2022/06/10 01:23:32;;;;;;;;;;;;;;;22.85;45.66;100053.06;116904;1188;22918;-55
2022/06/10 01:27:47;;;;;;;6.90;2.60;;;;;;;22.83;45.88;100056.05;117019;1188;21855;-55
2022/06/10 01:29:34;;;;;;;5.50;3.10;;;;;;;22.77;46.05;100049.50;117374;1184;23563;-55
2022/06/10 01:32:10;;;;;;;7.20;3.40;;;;;;;22.65;46.22;100036.34;117316;1186;21891;-56
2022/06/10 01:34:50;;;;;;;6.80;3.30;;;;;;;22.54;46.45;100030.65;117353;1185;21843;-47
2022/06/10 01:37:29;;;;;;;7.20;3.30;;;;;;;22.45;46.61;100036.08;117445;1186;23541;-55
2022/06/10 01:40:21;;;;;;;7.10;2.90;;;;;;;22.39;46.73;100050.56;117406;1186;23535;-53
2022/06/10 01:43:07;;;;;;;3.70;2.80;;;;;;;22.37;46.82;100060.38;117439;1185;21870;-47
2022/06/10 01:45:39;;;;;;;7.20;3.00;;;;;;;22.37;46.84;100059.86;117408;1185;23712;-48
2022/06/10 01:48:32;;;;;;;14.20;3.50;;;;;;;22.35;47.08;100063.02;117389;1185;21890;-48
2022/06/10 01:51:05;;;;;;;6.10;3.10;;;;;;;22.31;47.28;100069.52;117381;1188;23583;-54
2022/06/10 01:53:54;;;;;;;5.40;2.80;;;;;;;22.28;47.31;100067.80;117388;1182;23618;-55
2022/06/10 01:56:35;;;;;;;7.20;3.00;;;;;;;22.24;47.46;100059.63;117387;1185;24199;-48
2022/06/10 01:59:03;;;;;;;7.20;3.30;;;;;;;22.18;47.62;100053.27;117462;1185;22078;-47
2022/06/10 02:01:33;;;;;;;7.20;3.70;;;;;;;22.13;47.78;100049.23;117403;1185;23569;-55
2022/06/10 02:04:21;;;;;;;7.10;3.00;;;;;;;22.11;47.85;100044.02;117422;1182;23086;-47
2022/06/10 02:07:00;;;;;;;7.20;3.30;;;;;;;22.05;47.93;100038.52;117402;1186;23643;-48
2022/06/10 02:09:41;;;;;;;10.90;3.40;;;;;;;21.99;48.06;100035.34;117359;1183;24155;-47
2022/06/10 02:12:21;;;;;;;8.00;3.20;;;;;;;21.94;48.31;100036.41;117384;1182;21876;-47
2022/06/10 02:14:55;;;;;;;7.90;3.10;;;;;;;21.90;48.19;100038.98;117433;1185;21858;-55
2022/06/10 02:17:23;;;;;;;6.80;2.90;;;;;;;21.89;48.27;100040.84;117336;1185;22915;-55
2022/06/10 02:19:53;;;;;;;3.90;2.80;;;;;;;21.88;48.38;100039.88;117347;1185;23563;-56
2022/06/10 02:22:25;;;;;;;5.90;2.80;;;;;;;21.85;48.41;100045.89;117405;1185;23666;-55
2022/06/10 02:25:00;;;;;;;8.30;2.80;;;;;;;21.84;48.58;100051.83;117328;1185;22622;-48
2022/06/10 02:27:30;;;;;;;6.50;3.10;;;;;;;21.84;48.57;100057.02;117375;1186;22799;-48
2022/06/10 02:30:02;;;;;;;11.40;3.20;;;;;;;21.83;48.63;100064.10;117407;1186;22969;-56
2022/06/10 02:32:30;;;;;;;6.40;3.50;;;;;;;21.82;48.73;100069.30;117427;1183;24156;-56
2022/06/10 02:34:57;;;;;;;7.30;3.10;;;;;;;21.81;48.75;100072.20;117463;1186;23598;-48
2022/06/10 02:37:42;;;;;;;6.30;3.10;;;;;;;21.79;48.96;100079.11;117427;1186;21904;-56
2022/06/10 02:40:09;;;;;;;5.90;3.20;;;;;;;21.78;48.92;100087.23;117320;1182;24133;-48
2022/06/10 02:42:49;;;;;;;9.20;3.40;;;;;;;21.77;48.91;100093.38;117344;1185;21964;-48
2022/06/10 02:45:33;;;;;;;11.60;3.30;;;;;;;21.78;48.93;100101.92;117297;1186;21877;-55
2022/06/10 02:48:35;;;;;;;6.00;3.00;;;;;;;21.78;49.08;100101.49;117391;1185;22163;-55
2022/06/10 02:51:02;;;;;;;8.00;3.00;;;;;;;21.79;49.20;100106.27;117265;1185;22803;-48
2022/06/10 02:53:30;;;;;;;7.50;3.50;;;;;;;21.81;49.15;100112.42;117383;1186;22905;-56
2022/06/10 02:55:57;;;;;;;8.20;3.40;;;;;;;21.82;49.28;100113.59;117386;1182;24075;-48
2022/06/10 03:01:57;;;;;;;7.60;3.30;;;;;;;21.89;49.26;100108.90;117348;1182;21852;-48
2022/06/10 03:04:58;;;;;;;8.40;3.40;;;;;;;21.93;49.37;100110.92;117261;1185;21835;-48
2022/06/10 03:08:11;;;;;;;12.50;3.60;;;;;;;21.95;49.34;100114.90;117409;1182;24234;-48
2022/06/10 03:10:50;;;;;;;7.10;3.30;;;;;;;21.97;49.35;100116.73;117439;1186;22620;-49
2022/06/10 03:13:59;;;;;;;9.40;4.10;;;;;;;22.01;49.40;100113.70;117422;1185;22908;-48
2022/06/10 03:16:57;;;;;;;9.20;3.40;;;;;;;22.01;49.54;100112.02;117298;1185;23983;-48
2022/06/10 03:19:37;;;;;;;11.10;3.50;;;;;;;21.97;49.39;100107.45;117387;1185;22928;-48
2022/06/10 03:22:12;;;;;;;11.20;4.10;;;;;;;21.94;49.45;100103.70;117401;1186;22740;-48
2022/06/10 03:25:07;;;;;;;9.00;3.60;;;;;;;21.93;49.55;100101.80;117433;1185;23544;-49
2022/06/10 03:27:49;;;;;;;8.10;4.20;;;;;;;21.88;49.59;100101.94;117388;1185;21852;-48
2022/06/10 03:30:18;;;;;;;7.50;4.00;;;;;;;21.83;49.72;100103.70;117433;1182;23468;-48
2022/06/10 03:33:21;;;;;;;11.10;3.80;;;;;;;21.80;49.74;100102.30;117455;1184;21938;-48
2022/06/10 03:35:53;;;;;;;10.10;4.10;;;;;;;21.78;49.84;100100.45;117447;1185;24152;-49
2022/06/10 03:38:21;;;;;;;8.40;4.10;;;;;;;21.78;49.80;100103.82;117442;1184;22506;-48
2022/06/10 03:40:56;;;;;;;11.20;3.20;;;;;;;21.82;49.84;100103.45;117257;1183;23605;-50
2022/06/10 03:43:35;;;;;;;13.40;4.70;;;;;;;21.86;49.79;100104.78;117324;1185;21960;-49
2022/06/10 03:46:05;;;;;;;10.90;3.80;;;;;;;21.96;49.79;100106.09;117397;1182;23461;-49
2022/06/10 03:48:35;;;;;;;15.30;4.40;;;;;;;21.99;49.80;100107.73;117422;1186;22751;-49
2022/06/10 03:51:02;;;;;;;8.60;3.90;;;;;;;22.01;49.82;100110.80;117443;1185;21947;-49
2022/06/10 03:53:29;;;;;;;6.60;2.90;;;;;;;21.99;50.00;100109.67;117457;1186;21844;-49
2022/06/10 03:55:56;;;;;;;12.40;3.20;;;;;;;21.97;50.05;100104.93;117478;1183;22912;-57
2022/06/10 03:58:23;;;;;;;9.30;3.10;;;;;;;21.95;50.16;100099.17;117450;1184;22912;-54
2022/06/10 04:00:50;;;;;;;7.80;2.90;;;;;;;21.93;50.19;100100.92;117430;1186;22776;-48
2022/06/10 04:03:21;;;;;;;7.80;2.90;;;;;;;21.92;50.27;100100.09;117356;1186;22977;-49
2022/06/10 04:05:53;;;;;;;7.50;3.10;;;;;;;21.90;50.25;100098.29;117404;1184;21977;-57
2022/06/10 04:08:40;;;;;;;5.80;2.90;;;;;;;21.87;50.37;100107.73;117326;1184;23541;-56
2022/06/10 04:11:07;;;;;;;8.40;3.00;;;;;;;21.86;50.50;100117.83;117381;1184;22605;-56
2022/06/10 04:13:35;;;;;;;8.70;3.00;;;;;;;21.88;50.63;100123.07;117477;1182;23570;-56
2022/06/10 04:16:02;;;;;;;7.70;3.00;;;;;;;21.90;50.63;100116.35;117371;1185;23542;-56
2022/06/10 04:18:29;;;;;;;7.90;2.80;;;;;;;21.89;50.80;100108.88;117454;1186;24165;-49
2022/06/10 04:20:56;;;;;;;5.40;2.60;;;;;;;21.88;50.70;100100.54;117383;1183;23389;-56
2022/06/10 04:23:23;;;;;;;10.80;3.40;;;;;;;21.87;50.81;100094.05;117360;1182;23516;-56
2022/06/10 04:25:50;;;;;;;5.20;2.90;;;;;;;21.87;50.91;100088.32;117366;1182;22144;-54
2022/06/10 04:28:17;;;;;;;5.10;3.00;;;;;;;21.87;50.86;100086.52;117365;1182;21885;-48
2022/06/10 04:30:46;;;;;;;5.10;2.40;;;;;;;21.85;51.01;100085.53;117396;1183;24297;-48
2022/06/10 04:33:13;;;;;;;3.70;2.10;;;;;;;21.88;51.21;100090.68;117493;1183;21871;-47
2022/06/10 04:35:41;;;;;;;6.30;2.40;;;;;;;21.93;51.20;100096.81;117294;1183;23557;-48
2022/06/10 04:38:08;;;;;;;7.80;2.50;;;;;;;22.02;51.22;100105.02;117419;1183;22150;-55
2022/06/10 04:40:37;;;;;;;5.70;2.10;;;;;;;22.11;51.23;100108.88;117364;1188;22156;-55
2022/06/10 04:43:05;;;;;;;5.60;2.20;;;;;;;22.21;51.36;100105.19;117383;1186;23459;-48
2022/06/10 04:45:34;;;;;;;3.60;2.20;;;;;;;22.28;51.33;100098.52;117386;1183;23563;-55
2022/06/10 04:48:01;;;;;;;3.40;2.10;;;;;;;22.32;51.29;100096.66;117428;1186;23554;-55
2022/06/10 04:50:29;;;;;;;4.50;2.10;;;;;;;22.34;51.35;100093.08;117376;1184;22915;-53
2022/06/10 04:52:57;;;;;;;3.60;2.20;;;;;;;22.35;51.35;100093.55;117351;1185;22915;-47
2022/06/10 04:55:25;;;;;;;4.30;2.30;;;;;;;22.38;51.39;100089.46;117411;1182;22988;-56
2022/06/10 04:57:54;;;;;;;5.70;2.10;;;;;;;22.43;51.47;100090.05;117423;1186;21960;-47
2022/06/10 05:00:26;;;;;;;6.40;2.40;;;;;;;22.48;51.49;100085.25;117418;1183;22903;-47
2022/06/10 05:02:53;;;;;;;7.00;2.30;;;;;;;22.51;51.45;100084.02;117409;1180;22927;-55
2022/06/10 05:05:21;;;;;;;7.10;3.30;;;;;;;22.54;51.56;100079.83;117382;1185;23523;-50
2022/06/10 05:07:48;;;;;;;11.30;3.40;;;;;;;22.61;51.80;100077.78;117407;1183;23554;-48
2022/06/10 05:10:16;;;;;;;4.70;2.60;;;;;;;22.73;51.87;100080.92;117315;1182;22976;-48
2022/06/10 05:12:44;;;;;;;5.60;2.70;;;;;;;22.89;52.21;100080.52;117403;1182;21846;-57
2022/06/10 05:15:14;;;;;;;11.20;6.80;;;;;;;23.06;52.14;100079.15;117355;1181;22932;-57
2022/06/10 05:17:41;;;;;;;4.40;3.30;;;;;;;23.15;52.04;100077.68;117387;1182;23544;-49
2022/06/10 05:20:11;;;;;;;5.90;3.40;;;;;;;23.21;52.04;100075.44;117441;1186;22634;-49
2022/06/10 05:22:38;;;;;;;4.80;2.80;;;;;;;23.23;51.88;100069.81;117355;1186;21849;-49
2022/06/10 05:25:06;;;;;;;4.10;2.80;;;;;;;23.23;51.88;100068.23;117274;1182;22938;-57
2022/06/10 05:27:33;;;;;;;4.70;2.30;;;;;;;23.23;51.90;100067.30;117342;1184;23618;-48
2022/06/10 05:30:00;;;;;;;4.60;2.20;;;;;;;23.25;52.04;100069.86;117336;1185;21849;-48
2022/06/10 05:32:27;;;;;;;2.90;1.90;;;;;;;23.26;51.89;100065.27;117319;1182;22623;-49
2022/06/10 05:34:54;;;;;;;3.70;2.20;;;;;;;23.28;52.03;100063.20;117299;1185;22613;-58
2022/06/10 05:37:24;;;;;;;4.90;2.80;;;;;;;23.32;52.20;100063.44;117328;1182;22953;-49
2022/06/10 05:39:52;;;;;;;4.70;2.10;;;;;;;23.38;52.10;100070.42;117281;1182;23490;-56
2022/06/10 05:42:19;;;;;;;4.10;2.50;;;;;;;23.41;52.03;100066.26;118636;1185;21849;-50
2022/06/10 05:44:48;;;;;;;6.30;3.60;;;;;;;23.45;51.96;100064.85;117301;1182;22004;-50
2022/06/10 05:47:27;;;;;;;4.60;3.60;;;;;;;23.49;52.16;100058.71;117438;1182;21896;-50
2022/06/10 05:49:57;;;;;;;5.50;2.90;;;;;;;23.54;52.28;100059.23;117414;1184;22615;-57
2022/06/10 05:52:25;;;;;;;5.10;2.20;;;;;;;23.62;52.49;100062.23;117404;1182;22912;-57
2022/06/10 05:54:53;;;;;;;3.60;2.20;;;;;;;23.80;52.54;100068.83;117366;1184;22967;-57
2022/06/10 05:57:20;;;;;;;3.30;2.30;;;;;;;24.02;52.45;100077.27;117290;1182;23461;-57
2022/06/10 05:59:49;;;;;;;4.70;2.50;;;;;;;24.28;52.72;100084.72;117364;1186;23550;-50
2022/06/10 06:02:18;;;;;;;4.10;2.80;;;;;;;24.56;52.84;100079.38;117389;1186;21846;-58
2022/06/10 06:04:46;;;;;;;4.70;2.80;;;;;;;24.81;52.67;100075.52;117308;1186;22912;-50
2022/06/10 06:07:16;;;;;;;5.90;2.80;;;;;;;24.99;52.27;100077.53;117410;1185;22604;-57
2022/06/10 06:09:45;;;;;;;5.10;2.80;;;;;;;25.06;51.92;100074.65;117370;1185;22921;-57
2022/06/10 06:12:14;;;;;;;5.90;2.80;;;;;;;25.06;51.75;100072.67;117330;1182;21868;-57
2022/06/10 06:14:44;;;;;;;6.70;2.10;;;;;;;25.06;51.67;100076.98;117266;1184;21869;-51
2022/06/10 06:17:15;;;;;;;8.00;6.80;;;;;;;25.09;51.58;100075.73;117293;1185;23645;-56
2022/06/10 06:19:42;;;;;;;14.20;12.20;;;;;;;25.07;51.42;100072.11;117389;1183;24139;-51
2022/06/10 06:22:10;;;;;;;11.70;5.30;;;;;;;25.05;51.35;100069.60;117476;1182;23640;-57
2022/06/10 06:24:38;;;;;;;7.10;3.70;;;;;;;25.01;51.31;100070.95;117438;1186;22915;-56
2022/06/10 06:27:06;;;;;;;16.70;5.00;;;;;;;24.93;51.24;100075.86;117473;1186;22629;-51
2022/06/10 06:29:33;;;;;;;13.10;4.90;;;;;;;24.90;51.15;100081.34;117455;1186;22835;-51
2022/06/10 06:32:00;;;;;;;17.30;6.60;;;;;;;24.91;51.25;100086.05;117312;1185;22620;-56
2022/06/10 06:34:28;;;;;;;8.00;3.20;;;;;;;24.97;51.40;100084.73;117281;1185;21861;-56
2022/06/10 06:36:55;;;;;;;6.10;3.80;;;;;;;25.07;51.49;100080.20;117462;1186;23595;-51
2022/06/10 06:39:23;;;;;;;4.30;3.10;;;;;;;25.17;51.47;100080.46;117489;1185;21857;-51
2022/06/10 06:41:52;;;;;;;3.60;2.30;;;;;;;25.29;51.60;100078.44;117436;1183;23553;-51
2022/06/10 06:44:19;;;;;;;5.40;2.50;;;;;;;25.46;51.60;100080.71;117378;1186;22912;-57
2022/06/10 06:46:46;;;;;;;4.30;2.10;;;;;;;25.64;51.44;100078.73;117370;1183;22199;-52
2022/06/10 06:49:19;;;;;;;6.20;2.80;;;;;;;25.83;51.50;100071.33;117434;1179;23752;-51
2022/06/10 06:51:47;;;;;;;5.60;2.30;;;;;;;26.08;51.48;100068.56;117321;1186;21854;-52
2022/06/10 06:54:16;;;;;;;3.40;2.20;;;;;;;26.32;51.26;100067.35;117419;1182;23634;-52
2022/06/10 06:56:43;;;;;;;5.30;2.10;;;;;;;26.55;51.19;100062.18;117383;1184;23509;-53
2022/06/10 06:59:10;;;;;;;3.10;1.90;;;;;;;26.85;51.24;100061.13;117277;1185;21849;-52
2022/06/10 07:01:37;;;;;;;3.30;1.90;;;;;;;27.17;51.01;100061.40;117255;1182;23565;-52
2022/06/10 07:04:05;;;;;;;2.60;1.80;;;;;;;27.48;50.88;100068.30;117332;1182;22866;-51
2022/06/10 07:06:33;;;;;;;3.90;2.00;;;;;;;27.74;50.62;100065.08;117347;1185;21841;-57
2022/06/10 07:09:01;;;;;;;4.20;1.80;;;;;;;27.98;50.20;100067.29;117443;1182;23622;-56
2022/06/10 07:11:28;;;;;;;2.40;1.90;;;;;;;28.19;50.00;100069.55;117421;1180;22804;-53
2022/06/10 07:13:55;;;;;;;2.70;1.90;;;;;;;28.29;49.48;100066.52;117405;1186;23046;-52
2022/06/10 07:16:22;;;;;;;4.20;2.00;;;;;;;28.26;49.37;100067.65;117406;1182;23452;-56
2022/06/10 07:18:53;;;;;;;2.50;1.90;;;;;;;28.31;49.51;100069.52;117331;1185;22897;-57
2022/06/10 07:21:20;;;;;;;10.80;2.40;;;;;;;28.45;49.41;100068.48;117421;1184;21851;-52
2022/06/10 07:23:48;;;;;;;2.60;1.80;;;;;;;28.60;49.50;100066.67;117408;1182;22812;-56
2022/06/10 07:26:15;;;;;;;3.60;2.20;;;;;;;28.83;49.39;100061.40;117425;1186;23567;-56
2022/06/10 07:28:42;;;;;;;5.60;2.50;;;;;;;29.07;49.03;100054.38;117440;1186;22935;-51
2022/06/10 07:31:11;;;;;;;4.50;2.10;;;;;;;29.24;48.83;100056.58;117484;1182;23567;-57
2022/06/10 07:33:40;;;;;;;3.60;2.10;;;;;;;29.40;48.81;100060.64;117585;1181;22614;-58
2022/06/10 07:36:10;;;;;;;3.70;1.90;;;;;;;29.52;48.59;100063.88;117366;1186;21824;-57
2022/06/10 07:38:38;;;;;;;5.20;2.50;;;;;;;29.63;48.25;100065.30;117529;1182;22822;-56
2022/06/10 07:43:51;;;;;;;5.10;2.00;;;;;;;29.65;47.76;100064.41;117262;1185;21852;-53
2022/06/10 07:46:19;;;;;;;4.70;2.00;;;;;;;29.67;47.62;100064.17;117378;1184;21978;-53
2022/06/10 07:48:47;;;;;;;5.20;2.10;;;;;;;29.78;47.60;100060.58;117381;1181;22613;-53
2022/06/10 07:51:15;;;;;;;4.80;2.10;;;;;;;29.92;47.46;100060.73;117297;1185;22617;-58
2022/06/10 07:53:42;;;;;;;8.80;2.00;;;;;;;30.01;47.39;100061.59;117359;1184;21858;-56
2022/06/10 07:56:10;;;;;;;5.60;2.10;;;;;;;30.20;47.35;100057.51;117356;1185;23627;-53
2022/06/10 07:58:37;;;;;;;5.10;2.20;;;;;;;30.37;46.88;100061.64;117326;1185;21850;-53
2022/06/10 08:01:05;;;;;;;2.90;1.90;;;;;;;30.49;46.94;100056.85;117336;1184;23023;-52
2022/06/10 08:03:33;;;;;;;2.80;1.70;;;;;;;30.62;46.53;100064.05;117333;1185;23545;-53
2022/06/10 08:06:01;;;;;;;3.10;1.80;;;;;;;30.73;45.82;100064.64;117310;1185;24133;-53
2022/06/10 08:08:28;;;;;;;4.10;1.70;;;;;;;30.66;45.36;100061.71;117341;1185;22915;-56
2022/06/10 08:10:55;;;;;;;3.60;1.80;;;;;;;30.53;45.15;100066.22;117400;1186;23541;-53
2022/06/10 08:13:23;;;;;;;4.60;1.80;;;;;;;30.37;45.02;100066.34;117318;1180;22912;-56
2022/06/10 08:15:56;;;;;;;4.20;1.80;;;;;;;30.26;44.76;100063.70;117441;1185;21846;-56
2022/06/10 08:18:23;;;;;;;4.00;1.70;;;;;;;30.16;44.64;100067.32;117436;1182;21839;-54
2022/06/10 08:23:37;;;;;;;3.30;1.90;;;;;;;29.92;44.38;100072.99;117358;1182;23567;-52
2022/06/10 08:26:06;;;;;;;3.40;1.70;;;;;;;29.85;44.35;100071.30;117333;1185;21876;-51
2022/06/10 08:28:34;;;;;;;4.70;2.30;;;;;;;29.86;44.31;100079.23;117314;1184;24012;-57
2022/06/10 08:31:02;;;;;;;4.80;2.10;;;;;;;29.88;44.34;100074.83;117652;1185;23542;-53
2022/06/10 08:33:29;;;;;;;5.10;2.20;;;;;;;29.87;44.18;100072.02;117466;1186;22911;-57
2022/06/10 08:35:57;;;;;;;6.10;2.10;;;;;;;29.83;44.22;100073.78;117316;1182;22914;-53
2022/06/10 08:38:24;;;;;;;4.80;1.90;;;;;;;29.83;44.11;100078.35;117294;1185;22643;-53
2022/06/10 08:41:11;;;;;;;5.10;2.20;;;;;;;29.83;43.98;100078.32;117392;1184;23438;-53
2022/06/10 08:43:38;;;;;;;5.60;2.90;;;;;;;29.90;44.17;100077.83;117355;1185;23712;-53
2022/06/10 08:46:28;;;;;;;6.00;2.30;;;;;;;30.00;44.11;100079.80;117331;1184;21856;-54
2022/06/10 08:49:09;;;;;;;3.80;2.00;;;;;;;30.09;43.81;100079.80;117257;1185;21849;-56
2022/06/10 08:51:49;;;;;;;5.20;2.30;;;;;;;30.16;43.60;100080.20;117277;1180;22915;-57
2022/06/10 08:54:20;;;;;;;4.10;1.90;;;;;;;30.26;43.41;100078.88;117371;1182;23585;-58
2022/06/10 08:56:49;;;;;;;4.50;1.80;;;;;;;30.32;43.34;100082.63;117167;1185;21861;-57
2022/06/10 08:59:40;;;;;;;4.60;1.90;;;;;;;30.38;43.41;100079.80;117213;1184;21862;-57
2022/06/10 09:02:14;;;;;;;4.30;1.70;;;;;;;30.45;43.18;100084.72;117157;1188;21846;-57
2022/06/10 09:05:09;;;;;;;3.80;1.90;;;;;;;30.56;43.18;100080.59;117250;1184;22915;-56
2022/06/10 09:07:42;;;;;;;4.80;2.20;;;;;;;30.66;43.01;100081.73;117303;1182;22942;-57
2022/06/10 09:10:25;;;;;;;4.60;1.90;;;;;;;30.82;43.14;100086.27;117332;1182;21906;-52
2022/06/10 09:12:56;;;;;;;4.10;1.80;;;;;;;31.02;43.15;100088.42;117385;1184;21883;-52
2022/06/10 09:15:24;;;;;;;4.50;2.20;;;;;;;31.17;42.94;100090.51;117286;1182;23634;-57
2022/06/10 09:17:55;;;;;;;4.10;2.10;;;;;;;31.21;42.67;100090.30;117342;1185;22643;-57
2022/06/10 09:20:32;;;;;;;5.20;1.70;;;;;;;31.24;42.66;100089.77;117328;1182;22912;-53
2022/06/10 09:23:17;;;;;;;4.10;2.20;;;;;;;31.25;42.63;100093.48;117202;1182;22826;-57
2022/06/10 09:25:47;;;;;;;3.40;1.80;;;;;;;31.20;42.41;100088.35;117287;1184;21852;-57
2022/06/10 09:28:14;;;;;;;3.60;1.60;;;;;;;31.15;42.41;100090.17;117298;1185;21861;-57
2022/06/10 09:30:56;;;;;;;3.30;1.80;;;;;;;31.12;42.41;100091.20;117399;1184;22053;-52
2022/06/10 09:33:50;;;;;;;2.30;1.70;;;;;;;31.14;42.30;100091.32;117331;1182;21890;-52
2022/06/10 09:36:42;;;;;;;3.20;1.90;;;;;;;31.24;42.27;100091.06;117191;1186;22607;-53
2022/06/10 09:42:23;;;;;;;3.00;1.60;;;;;;;31.58;41.86;100084.77;117266;1182;24657;-53
2022/06/10 09:45:20;;;;;;;6.90;2.30;;;;;;;31.69;42.05;100086.90;117327;1185;21852;-57
2022/06/10 09:47:55;;;;;;;3.90;1.70;;;;;;;31.80;41.78;100091.30;117213;1185;21951;-53
2022/06/10 09:50:31;;;;;;;3.40;1.60;;;;;;;31.87;41.62;100090.25;117325;1184;22935;-54
2022/06/10 09:53:40;;;;;;;2.10;1.60;;;;;;;31.86;41.54;100093.64;117307;1182;21850;-53
2022/06/10 09:56:23;;;;;;;3.80;1.50;;;;;;;31.80;41.43;100095.66;117263;1185;21849;-57
2022/06/10 09:58:57;;;;;;;3.10;1.40;;;;;;;31.78;41.52;100091.96;117295;1182;22624;-56
2022/06/10 10:01:27;;;;;;;2.60;1.50;;;;;;;31.86;41.59;100094.92;117416;1184;23541;-58
2022/06/10 10:04:32;;;;;;;4.70;1.70;;;;;;;32.05;41.68;100091.61;117453;1185;22989;-54
2022/06/10 10:07:22;;;;;;;3.00;1.50;;;;;;;32.35;41.60;100093.71;117109;1184;23942;-57
2022/06/10 10:10:11;;;;;;;2.60;1.40;;;;;;;32.50;41.20;100092.56;117255;1182;21957;-57
2022/06/10 10:12:57;;;;;;;4.60;2.50;;;;;;;32.55;40.93;100094.04;117340;1182;21871;-53
2022/06/10 10:15:28;;;;;;;3.50;1.70;;;;;;;32.53;40.84;100091.58;117261;1182;22654;-53
2022/06/10 10:17:59;;;;;;;2.80;1.80;;;;;;;32.50;40.87;100089.13;117354;1184;21852;-58
2022/06/10 10:20:47;;;;;;;3.20;1.70;;;;;;;32.49;40.65;100084.90;117344;1180;22916;-53
2022/06/10 10:23:26;;;;;;;4.00;1.50;;;;;;;32.48;40.64;100086.81;117284;1184;22722;-53
2022/06/10 10:25:53;;;;;;;6.10;1.80;;;;;;;32.62;40.73;100087.63;117310;1185;21852;-58
2022/06/10 10:28:23;;;;;;;4.80;1.50;;;;;;;32.90;40.71;100085.45;117228;1185;22316;-56
2022/06/10 10:31:02;;;;;;;3.60;1.50;;;;;;;33.30;40.91;100083.92;117254;1182;22907;-57
2022/06/10 10:33:29;;;;;;;3.00;1.30;;;;;;;33.81;40.90;100077.27;117281;1185;21860;-57
2022/06/10 10:35:58;;;;;;;3.60;1.70;;;;;;;34.28;40.60;100075.25;117283;1186;22918;-57
2022/06/10 10:38:37;;;;;;;4.10;2.00;;;;;;;34.61;40.16;100078.96;117311;1184;21852;-57
2022/06/10 10:41:34;;;;;;;4.70;1.90;;;;;;;34.79;39.75;100077.80;117423;1184;23966;-54
2022/06/10 10:44:26;;;;;;;5.20;2.00;;;;;;;34.74;38.86;100074.59;117171;1184;21907;-55
2022/06/10 10:47:09;;;;;;;4.40;2.20;;;;;;;34.53;38.75;100076.81;117792;1184;21953;-58
2022/06/10 10:49:37;;;;;;;4.30;1.90;;;;;;;34.39;38.79;100075.03;117305;1185;21938;-57
2022/06/10 10:52:19;;;;;;;6.80;2.20;;;;;;;34.28;38.75;100068.33;117357;1185;21860;-54
2022/06/10 10:54:48;;;;;;;2.60;1.40;;;;;;;34.12;38.62;100061.85;118010;1185;21851;-56
2022/06/10 10:57:35;;;;;;;2.60;1.70;;;;;;;33.89;38.43;100064.80;117300;1182;22841;-53
2022/06/10 11:00:11;;;;;;;3.70;1.90;;;;;;;33.64;38.56;100066.41;117240;1182;23477;-57
2022/06/10 11:02:42;;;;;;;4.10;2.00;;;;;;;33.51;38.40;100064.77;117314;1182;23622;-54
2022/06/10 11:05:21;;;;;;;7.90;2.20;;;;;;;33.19;37.66;100066.09;117277;1184;21980;-58
2022/06/10 11:08:16;;;;;;;3.40;1.90;;;;;;;32.71;37.97;100069.55;117329;1185;21861;-57
2022/06/10 11:10:50;;;;;;;6.60;1.90;;;;;;;32.47;38.44;100074.52;117321;1186;21859;-56
2022/06/10 11:13:28;;;;;;;7.00;1.90;;;;;;;32.65;38.64;100071.86;117250;1185;22915;-57
2022/06/10 11:15:55;;;;;;;6.20;2.10;;;;;;;32.84;38.44;100071.23;117319;1186;22905;-55
2022/06/10 11:18:23;;;;;;;8.10;2.10;;;;;;;32.87;38.49;100070.39;117321;1185;23088;-56
2022/06/10 11:20:50;;;;;;;5.10;2.10;;;;;;;32.89;38.43;100066.46;117393;1182;22614;-57
2022/06/10 11:23:24;;;;;;;5.50;2.20;;;;;;;32.97;38.64;100062.22;117177;1188;21849;-55
2022/06/10 11:26:09;;;;;;;6.30;2.10;;;;;;;33.10;38.60;100066.73;117326;1185;23554;-55
2022/06/10 11:28:40;;;;;;;5.70;2.60;;;;;;;33.17;38.49;100069.39;117311;1182;22915;-55
2022/06/10 11:31:17;;;;;;;5.50;2.70;;;;;;;33.19;38.53;100069.33;117351;1185;23538;-55
2022/06/10 11:33:44;;;;;;;5.50;2.20;;;;;;;33.15;38.37;100066.89;117290;1184;21993;-55
2022/06/10 11:36:14;;;;;;;4.70;2.50;;;;;;;33.04;38.35;100066.09;117365;1185;21885;-53
2022/06/10 11:39:09;;;;;;;7.50;2.40;;;;;;;32.94;38.43;100063.28;117424;1184;23479;-56
2022/06/10 11:41:36;;;;;;;3.60;1.50;;;;;;;32.85;38.55;100060.92;117356;1182;22914;-53
2022/06/10 11:44:22;;;;;;;3.60;2.20;;;;;;;32.83;38.57;100064.24;117308;1185;23316;-53
2022/06/10 11:46:58;;;;;;;3.70;1.70;;;;;;;32.84;38.55;100063.77;117021;1185;21961;-53
2022/06/10 11:49:34;;;;;;;4.00;1.90;;;;;;;32.88;38.59;100064.80;117258;1181;24267;-56
2022/06/10 11:52:22;;;;;;;3.10;2.00;;;;;;;32.91;38.66;100061.58;117364;1182;22769;-53
2022/06/10 11:55:21;;;;;;;5.30;1.80;;;;;;;32.99;38.45;100061.36;117137;1189;23588;-56
2022/06/10 12:00:58;;;;;;;4.20;2.30;;;;;;;33.02;38.37;100058.54;117119;1185;23541;-54
2022/06/10 12:03:46;;;;;;;2.80;1.50;;;;;;;33.24;38.53;100061.48;117282;1184;23599;-53